Time;durP1;ratioP1;P1;durP2;ratioP2;P2;SDS_P1;SDS_P2;PMS_P1;PMS_P2;Temp;Humidity;BMP_temperature;BMP_pressure;BME280_temperature;BME280_humidity;BME280_pressure;Samples;Min_cycle;Max_cycle;Signal;HPM_P1;HPM_P2
2022/06/11 00:01:21;;;;;;;;;;;;;;;19.54;71.29;101391.25;6256581;23;20047;-81
2022/06/11 00:03:51;;;;;;;8.93;4.00;;;;;;;19.62;71.30;101394.75;6262259;23;19935;-83
2022/06/11 00:06:19;;;;;;;8.20;4.25;;;;;;;19.58;72.16;101386.34;6267169;22;20020;-83
2022/06/11 00:08:46;;;;;;;10.35;5.43;;;;;;;19.41;72.53;101383.16;6258456;23;20020;-84
2022/06/11 00:11:14;;;;;;;9.13;4.70;;;;;;;19.39;72.87;101390.50;6259092;23;20020;-86
2022/06/11 00:13:42;;;;;;;8.57;4.50;;;;;;;19.28;73.52;101390.25;6258429;23;20024;-85
2022/06/11 00:16:10;;;;;;;9.25;4.20;;;;;;;19.31;73.43;101403.94;6258455;22;20080;-85
2022/06/11 00:18:41;;;;;;;9.02;4.15;;;;;;;19.21;73.79;101390.19;6259299;23;20024;-82
2022/06/11 00:21:08;;;;;;;12.07;4.50;;;;;;;19.25;73.54;101394.09;6258076;23;20016;-83
2022/06/11 00:23:35;;;;;;;9.93;5.03;;;;;;;19.25;73.48;101394.09;6258262;23;20035;-84
2022/06/11 00:26:03;;;;;;;10.63;4.50;;;;;;;19.28;73.53;101391.06;6258574;22;20031;-82
2022/06/11 00:28:30;;;;;;;10.32;4.45;;;;;;;19.30;73.43;101396.19;6257487;23;20035;-84
2022/06/11 00:30:57;;;;;;;7.10;4.20;;;;;;;19.24;73.84;101395.13;6258158;23;20024;-84
2022/06/11 00:33:24;;;;;;;9.73;4.47;;;;;;;19.18;74.30;101393.25;6256939;23;20035;-85
2022/06/11 00:35:52;;;;;;;9.88;4.60;;;;;;;19.20;74.39;101389.38;6257592;22;20025;-82
2022/06/11 00:38:20;;;;;;;9.05;4.78;;;;;;;19.16;74.52;101388.13;6268412;23;20024;-80
2022/06/11 00:40:49;;;;;;;8.68;4.60;;;;;;;19.20;74.97;101385.91;6268391;23;20110;-82
2022/06/11 00:43:19;;;;;;;9.98;4.63;;;;;;;19.11;75.44;101387.06;6258023;23;20024;-81
2022/06/11 00:45:52;;;;;;;10.27;4.53;;;;;;;19.15;75.45;101383.84;6254302;22;20020;-78
2022/06/11 00:48:26;;;;;;;8.90;4.25;;;;;;;19.16;75.74;101389.97;6252956;23;20020;-81
2022/06/11 00:50:59;;;;;;;7.85;4.55;;;;;;;19.22;75.57;101378.56;6252308;23;20047;-79
2022/06/11 00:53:33;;;;;;;11.02;4.32;;;;;;;19.23;75.38;101386.34;6252595;23;20020;-82
2022/06/11 00:56:02;;;;;;;8.45;4.60;;;;;;;19.21;75.30;101385.72;6251749;22;20122;-81
2022/06/11 00:58:35;;;;;;;7.57;4.18;;;;;;;19.17;75.56;101381.81;6251830;23;20027;-81
2022/06/11 01:01:02;;;;;;;10.50;3.97;;;;;;;19.17;75.84;101383.66;6254272;23;20036;-82
2022/06/11 01:03:34;;;;;;;8.45;4.18;;;;;;;19.14;75.65;101381.38;6253394;23;20031;-82
2022/06/11 01:06:11;;;;;;;12.48;4.32;;;;;;;19.13;75.92;101380.56;6258014;22;20051;-81
2022/06/11 01:08:58;;;;;;;10.98;4.28;;;;;;;19.16;76.09;101385.47;6252483;23;20074;-82
2022/06/11 01:11:37;;;;;;;8.77;4.22;;;;;;;19.13;76.55;101385.03;6252691;23;20062;-81
2022/06/11 01:14:17;;;;;;;10.23;4.45;;;;;;;19.10;76.78;101383.59;6254073;23;20024;-81
2022/06/11 01:16:57;;;;;;;10.27;4.70;;;;;;;19.14;76.62;101386.69;6263554;22;20011;-82
2022/06/11 01:20:00;;;;;;;10.80;4.80;;;;;;;19.17;76.61;101386.28;6262866;23;20071;-82
2022/06/11 01:22:58;;;;;;;8.88;4.63;;;;;;;19.16;76.74;101384.66;6252273;23;20024;-81
2022/06/11 01:25:33;;;;;;;13.85;4.32;;;;;;;19.15;76.98;101391.78;6240353;22;20035;-81
2022/06/11 01:28:12;;;;;;;5.80;4.30;;;;;;;19.02;77.73;101385.56;6252184;23;20027;-81
2022/06/11 01:30:47;;;;;;;10.38;4.32;;;;;;;19.10;77.33;101390.72;6252618;23;20024;-82
2022/06/11 01:33:22;;;;;;;12.32;5.15;;;;;;;19.06;77.31;101389.47;6252735;23;20031;-85
2022/06/11 01:35:59;;;;;;;8.45;4.97;;;;;;;19.04;77.33;101386.19;6253077;22;20024;-82
2022/06/11 01:38:31;;;;;;;10.65;4.82;;;;;;;19.02;77.47;101374.97;6252483;23;20027;-82
2022/06/11 01:41:18;;;;;;;7.20;4.40;;;;;;;18.93;77.49;101384.88;6252232;23;20413;-82
2022/06/11 01:43:47;;;;;;;9.05;4.20;;;;;;;18.92;76.88;101372.63;6251189;23;20020;-83
2022/06/11 01:46:19;;;;;;;7.88;4.05;;;;;;;19.04;76.45;101386.19;6252315;22;20028;-81
2022/06/11 01:48:52;;;;;;;8.27;4.53;;;;;;;19.10;75.84;101385.44;6251870;23;20017;-82
2022/06/11 01:51:28;;;;;;;10.93;4.70;;;;;;;19.14;76.04;101387.50;6253502;23;20031;-83
2022/06/11 01:54:21;;;;;;;7.72;4.53;;;;;;;19.09;76.27;101389.09;6262103;23;20028;-82
2022/06/11 01:56:58;;;;;;;;;;;;;;;19.08;76.26;101392.75;6261840;22;20054;-80
2022/06/11 01:59:42;;;;;;;9.80;4.07;;;;;;;19.05;76.48;101377.22;6257996;23;19915;-79
2022/06/11 02:02:27;;;;;;;10.55;4.13;;;;;;;19.08;76.46;101385.63;6264905;23;20028;-80
2022/06/11 02:05:00;;;;;;;7.88;4.03;;;;;;;19.09;76.70;101386.44;6256974;22;20020;-81
2022/06/11 02:07:41;;;;;;;8.35;4.10;;;;;;;19.09;76.76;101389.91;6253641;23;20027;-81
2022/06/11 02:10:15;;;;;;;6.68;4.38;;;;;;;19.03;77.05;101380.06;6252432;23;20024;-80
2022/06/11 02:12:46;;;;;;;8.80;4.22;;;;;;;19.01;77.05;101387.41;6252027;23;20357;-81
2022/06/11 02:15:20;;;;;;;9.10;4.75;;;;;;;19.07;76.55;101391.13;6250954;22;20051;-80
2022/06/11 02:17:53;;;;;;;8.20;4.40;;;;;;;19.07;76.45;101393.78;6251420;23;20091;-81
2022/06/11 02:20:25;;;;;;;9.23;4.20;;;;;;;19.07;76.16;101397.25;6251053;23;20035;-80
2022/06/11 02:22:57;;;;;;;6.30;4.25;;;;;;;19.10;76.14;101404.00;6253829;23;20043;-81
2022/06/11 02:25:28;;;;;;;10.05;4.07;;;;;;;19.07;76.28;101399.91;6250092;22;20024;-80
2022/06/11 02:28:02;;;;;;;9.13;4.28;;;;;;;19.08;76.28;101398.06;6249549;23;20027;-81
2022/06/11 02:30:31;;;;;;;8.95;4.40;;;;;;;19.07;76.61;101397.25;6250753;23;20355;-82
2022/06/11 02:33:00;;;;;;;9.98;4.32;;;;;;;19.04;77.17;101394.16;6250519;23;20456;-80
2022/06/11 02:35:37;;;;;;;10.20;4.45;;;;;;;19.01;76.94;101389.22;6250900;22;20024;-82
2022/06/11 02:38:05;;;;;;;6.93;4.30;;;;;;;19.04;76.91;101396.81;6250543;23;20054;-82
2022/06/11 02:40:36;;;;;;;8.02;4.50;;;;;;;19.00;77.16;101401.69;6251866;23;20043;-82
2022/06/11 02:43:04;;;;;;;8.80;4.50;;;;;;;18.97;77.40;101398.59;6252530;23;20024;-81
2022/06/11 02:45:31;;;;;;;11.85;4.78;;;;;;;18.94;77.50;101412.22;6254087;22;20247;-81
2022/06/11 02:48:22;;;;;;;9.65;4.72;;;;;;;18.93;77.86;101411.41;6256971;23;20024;-82
2022/06/11 02:50:49;;;;;;;7.30;4.47;;;;;;;18.82;78.33;101410.13;6254870;23;20051;-79
2022/06/11 02:53:17;;;;;;;12.38;4.95;;;;;;;18.75;78.59;101413.72;6254613;23;20024;-85
2022/06/11 02:55:45;;;;;;;9.15;4.70;;;;;;;18.70;79.21;101411.63;6253953;22;20023;-79
2022/06/11 02:58:13;;;;;;;8.25;4.93;;;;;;;18.61;79.75;101415.41;6253316;23;20024;-79
2022/06/11 03:00:42;;;;;;;8.15;4.57;;;;;;;18.61;79.83;101412.78;6253824;23;20035;-80
2022/06/11 03:03:10;;;;;;;8.60;5.03;;;;;;;18.67;79.20;101417.31;6253352;23;20028;-82
2022/06/11 03:05:39;;;;;;;11.18;4.90;;;;;;;18.56;79.38;101417.78;6255448;22;20074;-82
2022/06/11 03:08:14;;;;;;;12.35;5.40;;;;;;;18.52;79.60;101406.75;6255676;23;20071;-79
2022/06/11 03:10:44;;;;;;;9.43;5.20;;;;;;;18.40;79.82;101396.84;6256469;23;20036;-81
2022/06/11 03:13:11;;;;;;;10.75;4.97;;;;;;;18.39;80.01;101393.38;6255349;23;20068;-83
2022/06/11 03:15:38;;;;;;;9.27;5.43;;;;;;;18.44;79.91;101413.97;6253981;22;20534;-81
2022/06/11 03:18:05;;;;;;;11.05;5.60;;;;;;;18.30;80.49;101404.28;6254240;23;20020;-82
2022/06/11 03:20:33;;;;;;;10.15;5.25;;;;;;;18.34;80.65;101402.91;6254601;23;20031;-84
2022/06/11 03:23:00;;;;;;;10.45;5.47;;;;;;;18.23;80.84;101420.94;6255652;23;20020;-85
2022/06/11 03:25:27;;;;;;;10.48;5.70;;;;;;;18.04;81.64;101410.09;6256209;22;20024;-82
2022/06/11 03:27:54;;;;;;;14.82;5.70;;;;;;;18.01;81.83;101415.75;6252287;23;20020;-80
2022/06/11 03:30:21;;;;;;;10.75;6.00;;;;;;;17.90;82.36;101409.94;6252638;23;20052;-81
2022/06/11 03:32:48;;;;;;;15.10;6.60;;;;;;;17.88;82.80;101419.91;6252962;23;20515;-81
2022/06/11 03:35:15;;;;;;;15.20;6.30;;;;;;;17.83;82.85;101424.09;6251940;22;20020;-82
2022/06/11 03:37:44;;;;;;;13.98;6.32;;;;;;;17.86;82.97;101426.38;6251552;23;20020;-82
2022/06/11 03:40:12;;;;;;;13.05;6.45;;;;;;;17.85;83.03;101428.22;6252009;23;20024;-82
2022/06/11 03:42:38;;;;;;;11.65;6.43;;;;;;;17.79;82.88;101428.13;6251766;23;20024;-81
2022/06/11 03:45:06;;;;;;;14.52;6.25;;;;;;;17.73;83.42;101439.44;6252106;22;20024;-83
2022/06/11 03:47:36;;;;;;;11.60;6.07;;;;;;;17.64;84.03;101429.91;6252642;23;20016;-82
2022/06/11 03:50:04;;;;;;;13.73;5.88;;;;;;;17.68;84.11;101441.81;6253699;23;20020;-80
2022/06/11 03:52:30;;;;;;;11.77;5.03;;;;;;;17.65;84.26;101448.28;6254271;23;20027;-80
2022/06/11 03:54:58;;;;;;;11.70;5.50;;;;;;;17.65;84.17;101436.84;6253420;22;20024;-80
2022/06/11 03:57:26;;;;;;;9.43;4.90;;;;;;;17.70;84.29;101437.97;6252768;23;20020;-80
2022/06/11 03:59:53;;;;;;;8.23;4.93;;;;;;;17.84;83.08;101436.34;6252753;23;20051;-81
2022/06/11 04:02:20;;;;;;;10.50;5.82;;;;;;;18.02;83.15;101444.69;6252993;23;20047;-82
2022/06/11 04:04:47;;;;;;;11.15;5.03;;;;;;;18.16;82.58;101451.81;6252554;22;20024;-82
2022/06/11 04:07:14;;;;;;;9.00;4.70;;;;;;;18.31;81.58;101446.50;6251837;23;20019;-79
2022/06/11 04:09:44;;;;;;;9.85;5.50;;;;;;;19.11;79.25;101445.44;6251124;23;20461;-80
2022/06/11 04:12:15;;;;;;;8.48;4.93;;;;;;;20.63;73.26;101441.72;6251203;23;20024;-80
2022/06/11 04:14:43;;;;;;;7.90;4.70;;;;;;;21.65;67.20;101451.91;6251545;22;20047;-78
2022/06/11 04:17:14;;;;;;;7.38;4.45;;;;;;;22.62;64.58;101447.38;6251409;23;20020;-81
2022/06/11 04:19:43;;;;;;;9.90;4.72;;;;;;;22.77;62.80;101451.38;6251612;23;20027;-82
2022/06/11 04:22:10;;;;;;;11.98;4.18;;;;;;;22.26;63.14;101448.00;6252542;23;20383;-81
2022/06/11 04:24:37;;;;;;;6.15;4.10;;;;;;;21.23;66.70;101452.41;6252600;22;20035;-80
2022/06/11 04:27:06;;;;;;;6.90;4.43;;;;;;;20.99;68.89;101451.13;6252195;23;20024;-84
2022/06/11 04:29:38;;;;;;;6.05;4.07;;;;;;;20.59;69.74;101455.59;6251265;23;20054;-81
2022/06/11 04:32:08;;;;;;;11.73;4.60;;;;;;;20.36;71.07;101455.91;6252433;23;20050;-83
2022/06/11 04:34:36;;;;;;;10.70;4.47;;;;;;;20.10;71.99;101460.13;6251908;22;20056;-82
2022/06/11 04:37:03;;;;;;;7.72;4.20;;;;;;;20.02;72.41;101449.69;6250904;23;20020;-82
2022/06/11 04:39:32;;;;;;;7.82;4.70;;;;;;;19.96;72.24;101457.63;6249909;23;20099;-79
2022/06/11 04:42:00;;;;;;;5.13;4.15;;;;;;;19.83;73.79;101461.06;6251529;23;20024;-80
2022/06/11 04:44:27;;;;;;;8.43;4.43;;;;;;;20.02;73.26;101455.00;6251208;23;20099;-82
2022/06/11 04:46:56;;;;;;;6.28;4.10;;;;;;;20.01;73.19;101460.50;6250607;22;20021;-82
2022/06/11 04:49:23;;;;;;;6.25;4.13;;;;;;;19.97;72.45;101460.06;6250355;23;20024;-82
2022/06/11 04:51:49;;;;;;;8.07;4.57;;;;;;;20.02;72.20;101468.28;6252316;23;20480;-82
2022/06/11 04:54:16;;;;;;;7.82;4.55;;;;;;;19.96;72.80;101463.75;6254236;23;20380;-82
2022/06/11 04:56:43;;;;;;;9.43;4.53;;;;;;;19.84;73.60;101460.03;6253956;22;20024;-80
2022/06/11 04:59:10;;;;;;;8.65;4.57;;;;;;;19.83;73.47;101461.88;6253951;23;20095;-81
2022/06/11 05:01:37;;;;;;;6.68;4.30;;;;;;;19.86;73.52;101455.31;6253982;23;20030;-79
2022/06/11 05:04:05;;;;;;;5.68;4.60;;;;;;;19.74;73.96;101462.22;6255308;23;20020;-83
2022/06/11 05:06:41;;;;;;;7.97;4.45;;;;;;;19.79;73.46;101455.31;6254733;22;20062;-82
2022/06/11 05:09:17;;;;;;;8.00;4.40;;;;;;;19.69;74.22;101449.53;6252372;23;20043;-81
2022/06/11 05:11:47;;;;;;;6.32;3.90;;;;;;;19.79;72.66;101447.34;6252902;23;20027;-83
2022/06/11 05:14:23;;;;;;;13.52;4.25;;;;;;;19.83;73.66;101450.44;6255967;23;20062;-79
2022/06/11 05:16:58;;;;;;;8.30;4.15;;;;;;;19.84;72.37;101452.06;6259012;22;20048;-79
2022/06/11 05:19:27;;;;;;;7.53;4.40;;;;;;;19.82;72.34;101472.69;6254255;23;20024;-82
2022/06/11 05:21:54;;;;;;;9.65;4.00;;;;;;;19.97;73.47;101461.91;6258477;23;20119;-79
2022/06/11 05:24:21;;;;;;;7.22;4.20;;;;;;;20.09;73.21;101470.97;6258575;23;20024;-79
2022/06/11 05:26:51;;;;;;;9.57;4.85;;;;;;;20.28;72.77;101480.03;6257060;22;20016;-83
2022/06/11 05:29:24;;;;;;;11.43;4.85;;;;;;;20.02;72.59;101459.47;6254000;23;20050;-82
2022/06/11 05:31:59;;;;;;;11.13;4.72;;;;;;;20.19;73.10;101466.09;6253611;23;20024;-83
2022/06/11 05:37:14;;;;;;;10.38;4.80;;;;;;;20.73;70.89;101484.69;6250054;23;20016;-83
2022/06/11 05:39:43;;;;;;;8.10;4.50;;;;;;;21.03;71.08;101468.34;6257687;23;20070;-79
2022/06/11 05:42:10;;;;;;;8.43;4.60;;;;;;;20.98;69.72;101473.44;6263193;23;20035;-79
2022/06/11 05:44:37;;;;;;;15.38;4.70;;;;;;;20.73;71.73;101482.03;6264069;22;20028;-81
2022/06/11 05:47:05;;;;;;;11.43;4.85;;;;;;;20.26;73.42;101471.44;6259465;23;20027;-80
2022/06/11 05:49:37;;;;;;;10.82;4.78;;;;;;;20.28;73.03;101480.03;6254274;23;20024;-80
2022/06/11 05:52:09;;;;;;;9.60;4.60;;;;;;;20.19;72.49;101480.22;6252411;23;20530;-79
2022/06/11 05:54:36;;;;;;;11.98;5.65;;;;;;;20.41;72.33;101477.44;6252231;22;20031;-79
2022/06/11 05:57:06;;;;;;;8.00;4.43;;;;;;;20.56;72.40;101478.09;6252813;23;20016;-80
2022/06/11 05:59:38;;;;;;;9.30;4.53;;;;;;;20.52;73.06;101476.84;6252638;23;20020;-80
2022/06/11 06:02:10;;;;;;;9.88;4.60;;;;;;;20.64;72.57;101469.94;6253145;23;20324;-79
2022/06/11 06:04:38;;;;;;;9.20;4.57;;;;;;;20.69;72.25;101472.81;6252283;22;20077;-80
2022/06/11 06:07:06;;;;;;;10.73;4.53;;;;;;;20.52;72.04;101471.53;6251188;23;20020;-81
2022/06/11 06:09:33;;;;;;;5.63;4.10;;;;;;;20.89;72.37;101483.47;6250729;23;20022;-80
2022/06/11 06:11:59;;;;;;;7.75;4.40;;;;;;;20.91;71.25;101477.94;6250893;23;20020;-80
2022/06/11 06:14:29;;;;;;;9.35;5.00;;;;;;;20.98;70.54;101489.41;6258587;23;20028;-81
2022/06/11 06:16:59;;;;;;;15.02;4.68;;;;;;;21.34;69.68;101471.22;6261807;22;20020;-81
2022/06/11 06:19:30;;;;;;;7.72;4.57;;;;;;;21.40;70.14;101481.03;6262495;23;20030;-85
2022/06/11 06:21:58;;;;;;;8.20;4.35;;;;;;;22.02;68.28;101495.69;6258234;23;20452;-79
2022/06/11 06:24:25;;;;;;;7.68;4.45;;;;;;;22.03;67.13;101497.31;6252900;23;20035;-77
2022/06/11 06:26:52;;;;;;;8.77;4.32;;;;;;;21.46;68.20;101477.56;6253578;22;20511;-78
2022/06/11 06:29:19;;;;;;;7.22;4.30;;;;;;;21.46;68.63;101485.53;6254970;23;20119;-79
2022/06/11 06:31:48;;;;;;;9.07;4.40;;;;;;;21.40;68.74;101475.72;6255547;23;20024;-79
2022/06/11 06:34:17;;;;;;;9.90;4.47;;;;;;;21.74;68.04;101492.47;6254519;23;20035;-79
2022/06/11 06:36:44;;;;;;;8.70;4.20;;;;;;;21.70;68.64;101481.41;6244742;22;20423;-80
2022/06/11 06:39:12;;;;;;;7.30;4.50;;;;;;;21.97;68.16;101500.78;6252519;23;20047;-81
2022/06/11 06:41:40;;;;;;;8.88;4.03;;;;;;;22.00;67.42;101494.22;6257052;23;20337;-82
2022/06/11 06:44:07;;;;;;;8.43;4.20;;;;;;;22.13;68.16;101496.88;6262686;23;20024;-81
2022/06/11 06:46:34;;;;;;;6.68;3.85;;;;;;;22.07;66.46;101498.53;6254707;22;20046;-82
2022/06/11 06:49:01;;;;;;;5.72;4.18;;;;;;;22.56;65.65;101507.75;6258063;23;20020;-81
2022/06/11 06:51:28;;;;;;;9.15;4.00;;;;;;;22.71;65.44;101502.09;6258421;23;20078;-81
2022/06/11 06:53:55;;;;;;;7.05;4.38;;;;;;;22.58;64.94;101513.69;6255548;23;20024;-82
2022/06/11 06:56:26;;;;;;;8.43;4.53;;;;;;;23.05;64.13;101506.22;6257249;22;20050;-81
2022/06/11 06:58:53;;;;;;;7.37;4.13;;;;;;;23.58;61.70;101514.63;6257256;23;20046;-81
2022/06/11 07:01:20;;;;;;;8.00;3.70;;;;;;;24.42;58.60;101513.88;6255569;23;20309;-82
2022/06/11 07:03:47;;;;;;;5.78;3.63;;;;;;;25.22;55.93;101510.84;6255284;23;20078;-83
2022/06/11 07:06:13;;;;;;;11.52;3.50;;;;;;;25.17;55.37;101510.72;6255200;22;20020;-81
2022/06/11 07:08:40;;;;;;;4.00;3.10;;;;;;;25.00;55.46;101510.59;6254787;23;20020;-82
2022/06/11 07:11:07;;;;;;;4.28;3.22;;;;;;;24.30;56.62;101504.97;6259449;23;20028;-82
2022/06/11 07:13:35;;;;;;;4.53;3.22;;;;;;;24.64;56.07;101514.19;6259220;23;20020;-83
2022/06/11 07:16:05;;;;;;;9.40;3.78;;;;;;;24.70;56.02;101501.75;6261858;22;20476;-84
2022/06/11 07:18:41;;;;;;;5.85;3.22;;;;;;;24.43;57.69;101509.34;6262391;23;20080;-83
2022/06/11 07:21:14;;;;;;;12.45;3.58;;;;;;;24.05;57.83;101507.75;6261375;23;20024;-82
2022/06/11 07:23:44;;;;;;;5.40;3.85;;;;;;;23.78;57.91;101506.38;6262215;23;20024;-82
2022/06/11 07:26:21;;;;;;;9.65;3.70;;;;;;;23.21;60.58;101492.31;6260945;22;20383;-83
2022/06/11 07:28:56;;;;;;;6.57;3.78;;;;;;;23.88;59.76;101516.56;6257223;23;20020;-82
2022/06/11 07:31:23;;;;;;;6.50;3.95;;;;;;;24.29;58.20;101499.84;6260335;23;20024;-82
2022/06/11 07:33:50;;;;;;;6.15;3.88;;;;;;;24.96;57.26;101513.97;6259346;23;20024;-83
2022/06/11 07:36:18;;;;;;;7.47;3.70;;;;;;;25.40;55.14;101513.44;6261125;22;20366;-83
2022/06/11 07:38:45;;;;;;;7.22;3.42;;;;;;;26.08;52.64;101506.59;6259020;23;20019;-85
2022/06/11 07:41:12;;;;;;;5.57;3.80;;;;;;;26.81;50.48;101516.59;6263085;23;20039;-83
2022/06/11 07:43:38;;;;;;;10.30;4.45;;;;;;;26.57;50.78;101494.41;6259984;23;20020;-83
2022/06/11 07:46:07;;;;;;;6.82;3.72;;;;;;;27.15;50.40;101504.00;6258808;22;20032;-83
2022/06/11 07:48:34;;;;;;;7.50;4.20;;;;;;;26.90;50.69;101495.53;6258168;23;20020;-81
2022/06/11 07:51:00;;;;;;;5.85;3.65;;;;;;;26.97;50.33;101505.06;6256595;23;20016;-81
2022/06/11 07:53:27;;;;;;;7.13;3.65;;;;;;;26.87;50.30;101501.38;6259262;23;20054;-82
2022/06/11 07:55:55;;;;;;;8.57;4.18;;;;;;;26.84;50.50;101509.91;6260760;22;20024;-82
2022/06/11 07:58:26;;;;;;;6.60;3.88;;;;;;;26.42;51.75;101507.56;6259367;23;20031;-83
2022/06/11 08:00:54;;;;;;;6.40;3.90;;;;;;;25.83;52.80;101498.03;6260637;23;20031;-81
2022/06/11 08:03:22;;;;;;;6.68;3.85;;;;;;;25.71;53.25;101500.72;6256580;23;20034;-82
2022/06/11 08:05:49;;;;;;;5.43;3.33;;;;;;;25.76;53.03;101498.16;6254140;22;20034;-82
2022/06/11 08:08:18;;;;;;;7.75;3.90;;;;;;;25.37;54.62;101491.63;6255778;23;20024;-80
2022/06/11 08:10:46;;;;;;;6.80;3.83;;;;;;;25.43;53.80;101507.59;6255972;23;20036;-82
2022/06/11 08:13:13;;;;;;;7.20;3.72;;;;;;;26.43;52.29;101511.88;6257117;23;20028;-82
2022/06/11 08:15:42;;;;;;;7.13;3.60;;;;;;;27.53;48.54;101511.28;6253669;22;20028;-83
2022/06/11 08:18:10;;;;;;;6.95;3.38;;;;;;;28.26;46.84;101515.50;6254264;23;20020;-81
2022/06/11 08:20:38;;;;;;;9.00;3.40;;;;;;;28.14;47.16;101517.50;6252994;23;20020;-81
2022/06/11 08:23:05;;;;;;;8.30;3.58;;;;;;;27.80;48.23;101510.63;6252244;23;20055;-82
2022/06/11 08:25:33;;;;;;;6.15;3.35;;;;;;;28.23;47.94;101505.25;6252866;22;20024;-82
2022/06/11 08:28:00;;;;;;;5.78;3.45;;;;;;;28.19;47.27;101505.97;6252364;23;20027;-82
2022/06/11 08:30:29;;;;;;;7.03;3.97;;;;;;;27.76;48.55;101513.00;6251808;23;20020;-80
2022/06/11 08:32:55;;;;;;;5.32;3.75;;;;;;;25.70;53.36;101504.47;6252479;23;20081;-81
2022/06/11 08:35:26;;;;;;;4.25;3.78;;;;;;;26.35;52.59;101512.25;6251981;22;20024;-79
2022/06/11 08:37:54;;;;;;;8.25;3.70;;;;;;;26.85;51.51;101511.56;6252754;23;20024;-79
2022/06/11 08:40:26;;;;;;;6.35;3.47;;;;;;;27.30;50.32;101523.06;6253006;23;20024;-79
2022/06/11 08:42:59;;;;;;;6.93;3.95;;;;;;;26.36;51.95;101525.44;6251943;23;20083;-79
2022/06/11 08:45:33;;;;;;;8.93;4.55;;;;;;;25.57;55.15;101520.75;6250011;22;20329;-80
2022/06/11 08:48:07;;;;;;;7.10;4.15;;;;;;;25.68;54.97;101511.91;6248943;23;20078;-79
2022/06/11 08:50:36;;;;;;;5.28;4.05;;;;;;;25.40;55.49;101517.97;6248902;23;20051;-78
2022/06/11 08:53:06;;;;;;;9.25;5.15;;;;;;;24.61;57.85;101516.50;6248607;23;20023;-80
2022/06/11 08:55:37;;;;;;;7.80;5.00;;;;;;;24.07;59.14;101511.00;6248289;22;20028;-79
2022/06/11 08:58:16;;;;;;;6.00;4.70;;;;;;;23.69;61.58;101523.75;6248667;23;20020;-80
2022/06/11 09:00:48;;;;;;;5.95;4.72;;;;;;;23.50;61.39;101512.19;6247667;23;20016;-78
2022/06/11 09:03:30;;;;;;;6.72;4.60;;;;;;;23.02;62.81;101517.31;6249204;23;20028;-80
2022/06/11 09:06:30;;;;;;;8.88;4.88;;;;;;;23.03;61.94;101517.13;6247811;22;20024;-79
2022/06/11 09:09:04;;;;;;;8.02;4.90;;;;;;;23.33;62.31;101517.28;6248301;23;20059;-80
2022/06/11 09:11:53;;;;;;;9.45;4.20;;;;;;;24.36;59.45;101524.66;6248994;23;20032;-80
2022/06/11 09:14:45;;;;;;;5.32;4.13;;;;;;;25.23;55.20;101525.88;6248693;23;20028;-80
2022/06/11 09:17:33;;;;;;;7.18;4.00;;;;;;;25.79;54.42;101524.50;6250048;22;20032;-77
2022/06/11 09:20:11;;;;;;;6.55;3.90;;;;;;;26.60;52.87;101526.13;6247737;23;20058;-79
2022/06/11 09:23:01;;;;;;;8.68;4.18;;;;;;;26.51;51.13;101521.41;6247860;23;20024;-80
2022/06/11 09:25:44;;;;;;;8.45;4.38;;;;;;;26.73;50.89;101523.16;6248844;22;20032;-81
2022/06/11 09:28:20;;;;;;;7.43;4.10;;;;;;;26.93;49.77;101524.59;6251622;23;20024;-80
2022/06/11 09:30:58;;;;;;;6.70;3.90;;;;;;;27.26;50.33;101524.59;6252590;23;20024;-80
2022/06/11 09:33:29;;;;;;;7.80;4.20;;;;;;;27.34;47.87;101515.31;6251004;23;20035;-79
2022/06/11 09:36:01;;;;;;;8.45;4.60;;;;;;;27.07;48.64;101521.34;6251066;22;20469;-81
2022/06/11 09:38:37;;;;;;;7.65;5.30;;;;;;;27.47;49.42;101523.03;6253594;23;20050;-81
2022/06/11 09:41:18;;;;;;;6.30;4.80;;;;;;;26.49;50.66;101523.50;6249942;23;20043;-81
2022/06/11 09:43:53;;;;;;;9.18;4.40;;;;;;;26.79;51.33;101521.38;6252515;23;20020;-82
2022/06/11 09:46:25;;;;;;;5.85;3.83;;;;;;;26.56;50.02;101529.53;6250557;22;20028;-81
2022/06/11 09:49:01;;;;;;;;;;;;;;;25.97;51.91;101529.72;6250356;23;20024;-80
2022/06/11 09:51:36;;;;;;;10.18;4.90;;;;;;;25.59;52.48;101519.47;6250042;23;19916;-79
2022/06/11 09:54:17;;;;;;;8.23;4.40;;;;;;;25.18;53.35;101525.75;6250849;23;20020;-81
2022/06/11 09:56:53;;;;;;;7.88;4.57;;;;;;;25.43;53.75;101526.34;6250189;22;20020;-80
2022/06/11 09:59:30;;;;;;;6.90;3.95;;;;;;;26.00;51.72;101531.09;6249998;23;20024;-80
2022/06/11 10:02:02;;;;;;;8.65;4.28;;;;;;;26.03;52.47;101531.44;6251661;23;20019;-81
2022/06/11 10:04:35;;;;;;;7.32;4.43;;;;;;;25.95;52.15;101529.16;6249403;23;20020;-80
2022/06/11 10:07:07;;;;;;;8.88;4.65;;;;;;;26.48;51.56;101521.88;6251063;22;20035;-81
2022/06/11 10:09:41;;;;;;;8.02;4.63;;;;;;;26.56;51.56;101532.22;6250755;23;20388;-81
2022/06/11 10:12:17;;;;;;;11.10;4.22;;;;;;;26.61;51.83;101533.13;6250574;23;20024;-81
2022/06/11 10:14:51;;;;;;;6.60;4.43;;;;;;;25.88;52.43;101530.31;6249197;23;20020;-80
2022/06/11 10:17:23;;;;;;;6.82;4.30;;;;;;;26.17;52.88;101526.63;6250024;22;20023;-81
2022/06/11 10:19:57;;;;;;;6.53;4.55;;;;;;;26.19;51.61;101529.88;6250194;23;20020;-81
2022/06/11 10:22:30;;;;;;;5.90;4.75;;;;;;;26.26;51.72;101529.75;6251035;23;20024;-82
2022/06/11 10:25:05;;;;;;;9.85;5.00;;;;;;;26.22;51.45;101523.22;6251252;22;20084;-80
2022/06/11 10:27:38;;;;;;;7.38;4.72;;;;;;;26.41;50.64;101522.03;6250531;23;20070;-81
2022/06/11 10:30:19;;;;;;;6.68;4.63;;;;;;;27.03;49.96;101525.56;6249931;23;20039;-81
2022/06/11 10:32:50;;;;;;;8.07;5.05;;;;;;;26.65;49.84;101518.19;6251082;23;20031;-82
2022/06/11 10:35:21;;;;;;;6.22;4.47;;;;;;;26.63;51.02;101520.28;6248996;22;20469;-80
2022/06/11 10:37:52;;;;;;;6.20;4.23;;;;;;;26.71;50.94;101524.47;6249917;23;20039;-81
2022/06/11 10:40:23;;;;;;;5.30;4.50;;;;;;;26.44;51.73;101521.56;6246062;23;20016;-80
2022/06/11 10:42:59;;;;;;;11.07;5.90;;;;;;;26.64;50.76;101521.91;6247786;23;20027;-81
2022/06/11 10:45:26;;;;;;;7.32;5.05;;;;;;;26.92;50.12;101522.94;6248509;22;20024;-82
2022/06/11 10:47:55;;;;;;;6.00;4.57;;;;;;;26.16;52.90;101518.81;6250333;23;20099;-82
2022/06/11 10:50:25;;;;;;;9.20;6.22;;;;;;;25.73;53.15;101514.72;6248537;23;20027;-82
2022/06/11 10:52:56;;;;;;;8.27;5.00;;;;;;;25.53;53.91;101511.53;6250969;23;20078;-79
2022/06/11 10:55:34;;;;;;;8.35;5.15;;;;;;;26.21;53.12;101508.19;6250450;22;20024;-83
2022/06/11 10:58:11;;;;;;;8.38;4.80;;;;;;;26.70;51.77;101506.72;6246391;23;20047;-78
2022/06/11 11:00:46;;;;;;;7.30;4.57;;;;;;;25.88;51.62;101512.38;6247892;23;20017;-82
2022/06/11 11:03:18;;;;;;;6.38;4.57;;;;;;;25.73;52.99;101506.66;6251952;23;20070;-82
2022/06/11 11:05:50;;;;;;;7.82;4.80;;;;;;;25.54;53.43;101499.78;6251264;22;20031;-82
2022/06/11 11:08:17;;;;;;;6.07;4.53;;;;;;;26.06;52.12;101503.31;6249935;23;20020;-82
2022/06/11 11:10:47;;;;;;;5.82;4.97;;;;;;;26.04;52.43;101498.19;6251536;23;20028;-82
2022/06/11 11:13:22;;;;;;;7.90;4.93;;;;;;;26.10;52.89;101502.63;6251810;23;20020;-81
2022/06/11 11:15:57;;;;;;;8.98;5.13;;;;;;;25.82;52.58;101499.91;6254912;22;20024;-81
2022/06/11 11:18:27;;;;;;;7.95;5.55;;;;;;;25.89;52.58;101497.09;6250848;23;20016;-82
2022/06/11 11:20:57;;;;;;;7.78;5.35;;;;;;;26.12;51.87;101494.34;6250300;23;20491;-80
2022/06/11 11:23:29;;;;;;;7.65;5.18;;;;;;;26.41;51.28;101496.03;6250155;23;20334;-82
2022/06/11 11:26:00;;;;;;;8.57;5.25;;;;;;;26.38;51.41;101490.31;6250440;22;20078;-82
2022/06/11 11:28:31;;;;;;;7.05;5.40;;;;;;;26.29;51.82;101491.72;6249268;23;20013;-82
2022/06/11 11:31:05;;;;;;;9.48;5.75;;;;;;;26.55;51.79;101483.09;6249846;23;20040;-82
2022/06/11 11:33:34;;;;;;;7.28;5.57;;;;;;;26.36;51.99;101492.44;6249348;23;20036;-83
2022/06/11 11:36:12;;;;;;;8.07;5.45;;;;;;;26.37;50.88;101496.75;6249586;22;20044;-80
2022/06/11 11:38:40;;;;;;;8.52;5.85;;;;;;;25.93;53.30;101487.53;6248937;23;20534;-79
2022/06/11 11:41:07;;;;;;;6.90;5.90;;;;;;;26.08;52.88;101496.69;6250146;23;20059;-81
2022/06/11 11:43:39;;;;;;;7.82;5.57;;;;;;;26.40;51.54;101490.91;6253012;23;20049;-81
2022/06/11 11:46:11;;;;;;;10.02;5.65;;;;;;;26.67;49.56;101486.53;6252304;22;20031;-79